createdAt,value
2018-04-20T00:01:57.321Z,17.80
2018-04-20T00:04:24.822Z,16.00
2018-04-20T00:06:53.115Z,17.03
2018-04-20T00:09:20.581Z,14.83
2018-04-20T00:11:48.051Z,15.07
2018-04-20T00:14:15.614Z,15.77
2018-04-20T00:16:43.135Z,15.10
2018-04-20T00:19:10.676Z,17.07
2018-04-20T00:21:38.156Z,15.90
2018-04-20T00:24:06.455Z,15.50
2018-04-20T00:26:33.987Z,14.30
2018-04-20T00:29:01.461Z,14.90
2018-04-20T00:31:29.690Z,14.33
2018-04-20T00:33:57.259Z,14.83
2018-04-20T00:36:24.781Z,15.50
2018-04-20T00:38:52.302Z,14.63
2018-04-20T00:41:19.852Z,15.00
2018-04-20T00:43:47.371Z,15.13
2018-04-20T00:46:14.872Z,13.53
2018-04-20T00:48:43.127Z,13.73
2018-04-20T00:51:10.638Z,14.47
2018-04-20T00:56:45.054Z,14.17
2018-04-20T00:59:13.324Z,15.40
2018-04-20T01:01:41.608Z,14.03
2018-04-20T01:04:09.904Z,14.00
2018-04-20T01:06:37.473Z,13.20
2018-04-20T01:09:05.750Z,13.20
2018-04-20T01:11:33.213Z,13.30
2018-04-20T01:14:00.741Z,13.03
2018-04-20T01:16:28.217Z,13.57
2018-04-20T01:18:55.740Z,13.37
2018-04-20T01:21:24.072Z,14.63
2018-04-20T01:23:51.545Z,15.03
2018-04-20T01:26:19.024Z,14.77
2018-04-20T01:28:47.297Z,14.03
2018-04-20T01:31:15.582Z,13.23
2018-04-20T01:33:43.864Z,11.67
2018-04-20T01:36:12.143Z,13.23
2018-04-20T01:38:40.451Z,14.13
2018-04-20T01:41:07.983Z,12.43
2018-04-20T01:43:35.507Z,12.80
2018-04-20T01:46:03.019Z,13.23
2018-04-20T01:48:30.545Z,13.03
2018-04-20T01:50:58.075Z,13.03
2018-04-20T01:53:25.555Z,13.10
2018-04-20T01:55:53.820Z,13.80
2018-04-20T01:58:21.344Z,13.27
2018-04-20T02:00:48.879Z,13.20
2018-04-20T02:03:16.429Z,13.57
2018-04-20T02:05:43.914Z,12.10
2018-04-20T02:08:11.436Z,11.63
2018-04-20T02:10:39.695Z,13.00
2018-04-20T02:13:07.983Z,13.00
2018-04-20T02:15:36.246Z,13.23
2018-04-20T02:18:04.483Z,13.03
2018-04-20T02:20:31.962Z,12.77
2018-04-20T02:22:59.512Z,12.03
2018-04-20T02:25:26.986Z,11.60
2018-04-20T02:27:54.518Z,12.43
2018-04-20T02:30:22.027Z,12.43
2018-04-20T02:32:49.518Z,11.80
2018-04-20T02:35:17.030Z,13.07
2018-04-20T02:37:45.277Z,14.17
2018-04-20T02:40:12.811Z,13.07
2018-04-20T02:42:40.331Z,13.53
2018-04-20T02:45:07.836Z,12.17
2018-04-20T02:47:35.334Z,13.73
2018-04-20T02:50:03.572Z,12.90
2018-04-20T02:52:31.104Z,13.50
2018-04-20T02:54:58.626Z,12.47
2018-04-20T02:57:26.913Z,13.60
2018-04-20T02:59:54.423Z,12.73
2018-04-20T03:02:21.944Z,11.97
2018-04-20T03:04:49.425Z,12.07
2018-04-20T03:07:16.928Z,11.70
2018-04-20T03:09:45.236Z,12.43
2018-04-20T03:12:12.729Z,11.90
2018-04-20T03:14:40.213Z,12.90
2018-04-20T03:17:07.718Z,12.47
2018-04-20T03:19:35.198Z,13.17
2018-04-20T03:22:02.694Z,14.10
2018-04-20T03:24:30.988Z,13.30
2018-04-20T03:26:58.459Z,16.35
2018-04-20T03:29:25.998Z,15.17
2018-04-20T03:31:54.271Z,13.10
2018-04-20T03:34:22.563Z,12.80
2018-04-20T03:36:50.097Z,13.97
2018-04-20T03:39:18.365Z,12.73
2018-04-20T03:41:46.606Z,14.07
2018-04-20T03:44:14.124Z,12.50
2018-04-20T03:46:41.660Z,14.07
2018-04-20T03:49:09.143Z,12.87
2018-04-20T03:51:36.660Z,13.07
2018-04-20T03:54:04.204Z,13.40
2018-04-20T03:56:31.666Z,13.23
2018-04-20T03:58:59.174Z,11.27
2018-04-20T04:01:26.669Z,12.00
2018-04-20T04:03:54.176Z,13.50
2018-04-20T04:06:22.428Z,13.50
2018-04-20T04:08:49.914Z,12.60
2018-04-20T04:11:17.431Z,13.20
2018-04-20T04:13:44.947Z,13.30
2018-04-20T04:16:12.422Z,12.13
2018-04-20T04:18:51.903Z,12.43
2018-04-20T04:21:30.745Z,11.70
2018-04-20T04:27:10.381Z,10.97
2018-04-20T04:29:37.865Z,10.90
2018-04-20T04:32:05.341Z,10.33
2018-04-20T04:34:32.807Z,11.07
2018-04-20T04:37:00.302Z,12.23
2018-04-20T04:39:27.766Z,11.43
2018-04-20T04:41:55.267Z,11.97
2018-04-20T04:44:22.800Z,11.50
2018-04-20T04:46:51.021Z,10.67
2018-04-20T04:49:18.494Z,11.47
2018-04-20T04:51:46.019Z,10.87
2018-04-20T04:54:13.549Z,10.97
2018-04-20T04:56:41.018Z,11.27
2018-04-20T04:59:08.522Z,12.27
2018-04-20T05:01:36.040Z,12.40
2018-04-20T05:04:03.532Z,11.67
2018-04-20T05:06:31.781Z,11.17
2018-04-20T05:08:59.281Z,11.63
2018-04-20T05:11:26.797Z,12.37
2018-04-20T05:13:54.319Z,12.27
2018-04-20T05:16:21.856Z,14.07
2018-04-20T05:18:49.369Z,14.13
2018-04-20T05:21:16.888Z,13.03
2018-04-20T05:23:44.357Z,11.43
2018-04-20T05:26:12.653Z,12.37
2018-04-20T05:28:40.167Z,11.60
2018-04-20T05:31:07.716Z,11.43
2018-04-20T05:33:35.243Z,10.47
2018-04-20T05:36:02.769Z,9.57
2018-04-20T05:38:31.013Z,10.67
2018-04-20T05:40:58.516Z,9.67
2018-04-20T05:43:26.063Z,9.60
2018-04-20T05:45:54.331Z,8.67
2018-04-20T05:48:21.806Z,7.73
2018-04-20T05:50:49.366Z,7.90
2018-04-20T05:53:16.875Z,7.47
2018-04-20T05:55:44.396Z,8.30
2018-04-20T05:58:11.929Z,7.50
2018-04-20T06:00:40.173Z,8.60
2018-04-20T06:03:07.648Z,8.23
2018-04-20T06:05:35.909Z,8.27
2018-04-20T06:08:03.385Z,8.18
2018-04-20T06:10:31.682Z,9.02
2018-04-20T06:12:59.220Z,9.60
2018-04-20T06:15:27.507Z,9.60
2018-04-20T06:17:55.798Z,9.18
2018-04-20T06:20:23.311Z,8.35
2018-04-20T06:22:50.859Z,8.35
2018-04-20T06:25:18.360Z,9.07
2018-04-20T06:27:45.889Z,8.63
2018-04-20T06:30:13.357Z,8.63
2018-04-20T06:32:41.627Z,8.32
2018-04-20T06:35:09.091Z,8.23
2018-04-20T06:37:37.419Z,8.43
2018-04-20T06:40:05.609Z,7.93
2018-04-20T06:42:33.151Z,8.40
2018-04-20T06:45:00.704Z,8.75
2018-04-20T06:47:28.225Z,9.30
2018-04-20T06:49:56.466Z,12.77
2018-04-20T06:52:24.008Z,11.35
2018-04-20T06:54:52.274Z,8.98
2018-04-20T06:57:19.784Z,8.98
2018-04-20T06:59:47.295Z,8.98
2018-04-20T07:02:14.807Z,8.73
2018-04-20T07:04:43.098Z,8.65
2018-04-20T07:07:11.414Z,8.90
2018-04-20T07:09:38.923Z,9.02
2018-04-20T07:12:07.209Z,9.43
2018-04-20T07:14:34.737Z,9.82
2018-04-20T07:17:02.245Z,8.27
2018-04-20T07:19:29.738Z,9.50
2018-04-20T07:21:57.276Z,9.00
2018-04-20T07:24:24.761Z,10.88
2018-04-20T07:33:37.708Z,10.13
2018-04-20T07:36:05.191Z,9.90
2018-04-20T07:38:32.675Z,10.25
2018-04-20T07:41:00.219Z,10.85
2018-04-20T07:43:28.449Z,10.52
2018-04-20T07:45:55.967Z,10.35
2018-04-20T07:48:23.495Z,9.15
2018-04-20T07:50:50.966Z,10.05
2018-04-20T07:53:19.249Z,9.65
2018-04-20T07:55:46.807Z,8.77
2018-04-20T07:58:15.096Z,8.50
2018-04-20T08:00:42.623Z,9.85
2018-04-20T08:03:10.891Z,8.65
2018-04-20T08:05:38.403Z,9.02
2018-04-20T08:08:05.935Z,7.97
2018-04-20T08:10:34.206Z,8.85
2018-04-20T08:13:02.436Z,9.18
2018-04-20T08:15:29.977Z,9.27
2018-04-20T08:17:57.493Z,8.65
2018-04-20T08:20:25.963Z,10.35
2018-04-20T08:22:53.445Z,11.12
2018-04-20T08:25:20.931Z,9.27
2018-04-20T08:27:48.445Z,7.93
2018-04-20T08:30:16.730Z,8.98
2018-04-20T08:32:44.212Z,9.07
2018-04-20T08:35:11.710Z,9.13
2018-04-20T08:37:39.190Z,9.60
2018-04-20T08:40:07.422Z,9.65
2018-04-20T08:42:34.932Z,9.60
2018-04-20T08:45:03.219Z,9.15
2018-04-20T08:47:30.673Z,8.70
2018-04-20T08:49:58.135Z,9.60
2018-04-20T08:52:25.650Z,9.02
2018-04-20T08:54:53.126Z,9.93
2018-04-20T08:57:21.359Z,11.05
2018-04-20T08:59:48.842Z,10.65
2018-04-20T09:02:17.146Z,10.93
2018-04-20T09:04:44.651Z,9.30
2018-04-20T09:07:12.152Z,8.40
2018-04-20T09:09:40.406Z,9.07
2018-04-20T09:12:07.917Z,10.00
2018-04-20T09:14:35.412Z,9.52
2018-04-20T09:17:02.885Z,6.95
2018-04-20T09:19:31.167Z,9.63
2018-04-20T09:21:58.630Z,8.73
2018-04-20T09:24:26.934Z,8.98
2018-04-20T09:26:54.390Z,7.37
2018-04-20T09:29:21.854Z,7.07
2018-04-20T09:31:49.330Z,7.25
2018-04-20T09:34:16.795Z,6.93
2018-04-20T09:36:44.270Z,8.75
2018-04-20T09:39:11.744Z,8.40
2018-04-20T09:41:40.005Z,8.05
2018-04-20T09:44:07.462Z,8.43
2018-04-20T09:46:34.937Z,8.95
2018-04-20T09:49:03.174Z,7.85
2018-04-20T09:51:30.645Z,10.40
2018-04-20T09:53:58.200Z,7.62
2018-04-20T09:56:25.702Z,8.63
2018-04-20T09:58:53.216Z,7.30
2018-04-20T10:01:24.611Z,6.40
2018-04-20T10:03:56.975Z,6.57
2018-04-20T10:06:25.263Z,6.70
2018-04-20T10:08:53.500Z,6.40
2018-04-20T10:11:20.970Z,6.70
2018-04-20T10:13:49.351Z,5.97
2018-04-20T10:16:17.578Z,5.87
2018-04-20T10:18:45.086Z,4.75
2018-04-20T10:21:13.325Z,5.75
2018-04-20T10:23:40.838Z,5.50
2018-04-20T10:26:08.332Z,5.68
2018-04-20T10:28:35.807Z,5.10
2018-04-20T10:31:03.265Z,5.55
2018-04-20T10:33:30.764Z,4.95
2018-04-20T10:35:58.249Z,4.30
2018-04-20T10:38:25.710Z,4.82
2018-04-20T10:40:53.178Z,4.03
2018-04-20T10:43:20.661Z,3.80
2018-04-20T10:45:48.943Z,4.37
2018-04-20T10:48:16.419Z,3.75
2018-04-20T10:50:43.940Z,4.25
2018-04-20T10:53:11.441Z,4.00
2018-04-20T10:55:38.939Z,3.85
2018-04-20T10:58:06.469Z,4.10
2018-04-20T11:00:33.934Z,3.60
2018-04-20T11:03:01.427Z,4.07
2018-04-20T11:05:28.890Z,4.50
2018-04-20T11:07:56.359Z,4.20
2018-04-20T11:10:24.613Z,4.18
2018-04-20T11:12:52.099Z,3.92
2018-04-20T11:15:20.329Z,5.28
2018-04-20T11:17:47.806Z,4.25
2018-04-20T11:20:15.277Z,4.30
2018-04-20T11:22:43.547Z,4.07
2018-04-20T11:25:11.064Z,6.07
2018-04-20T11:27:38.521Z,4.43
2018-04-20T11:30:12.154Z,4.82
2018-04-20T11:32:39.655Z,5.03
2018-04-20T11:35:07.155Z,4.40
2018-04-20T11:37:34.644Z,4.40
2018-04-20T11:40:02.923Z,3.80
2018-04-20T11:42:31.217Z,3.95
2018-04-20T11:44:58.748Z,5.68
2018-04-20T11:47:26.273Z,3.90
2018-04-20T11:49:53.747Z,4.10
2018-04-20T11:52:21.280Z,4.45
2018-04-20T11:54:48.778Z,3.53
2018-04-20T11:57:16.256Z,3.55
2018-04-20T11:59:44.567Z,3.30
2018-04-20T12:02:12.122Z,3.35
2018-04-20T12:04:39.579Z,4.80
2018-04-20T12:07:07.130Z,4.07
2018-04-20T12:09:34.645Z,3.85
2018-04-20T12:12:02.142Z,3.37
2018-04-20T12:14:29.635Z,3.50
2018-04-20T12:16:57.907Z,3.17
2018-04-20T12:19:25.437Z,3.20
2018-04-20T12:21:52.942Z,3.75
2018-04-20T12:24:20.467Z,3.67
2018-04-20T12:26:47.997Z,3.50
2018-04-20T12:29:15.528Z,2.87
2018-04-20T12:31:43.011Z,4.18
2018-04-20T12:34:11.343Z,3.05
2018-04-20T12:36:38.811Z,3.20
2018-04-20T12:39:06.360Z,3.22
2018-04-20T12:41:33.907Z,3.53
2018-04-20T12:44:01.414Z,3.00
2018-04-20T12:46:29.679Z,3.05
2018-04-20T12:48:58.011Z,3.00
2018-04-20T12:51:25.503Z,3.15
2018-04-20T12:53:53.005Z,2.78
2018-04-20T12:56:20.520Z,5.32
2018-04-20T12:58:48.029Z,5.03
2018-04-20T13:01:15.535Z,3.95
2018-04-20T13:03:43.131Z,3.20
2018-04-20T13:06:10.647Z,3.67
2018-04-20T13:08:38.170Z,3.85
2018-04-20T13:11:05.622Z,3.03
2018-04-20T13:13:33.125Z,3.58
2018-04-20T13:16:00.657Z,3.05
2018-04-20T13:18:28.878Z,3.40
2018-04-20T13:20:56.346Z,3.40
2018-04-20T13:23:23.850Z,4.05
2018-04-20T13:25:52.130Z,3.40
2018-04-20T13:28:19.647Z,3.83
2018-04-20T13:30:47.119Z,3.20
2018-04-20T13:33:14.644Z,3.33
2018-04-20T13:35:42.959Z,3.55
2018-04-20T13:38:13.096Z,3.90
2018-04-20T13:40:40.620Z,3.67
2018-04-20T13:43:08.115Z,3.35
2018-04-20T13:45:35.597Z,3.00
2018-04-20T13:48:03.822Z,3.17
2018-04-20T13:50:31.306Z,3.47
2018-04-20T13:52:58.787Z,3.40
2018-04-20T13:55:27.014Z,3.10
2018-04-20T13:57:54.871Z,3.42
2018-04-20T14:00:22.372Z,3.10
2018-04-20T14:02:49.864Z,3.47
2018-04-20T14:05:17.421Z,2.92
2018-04-20T14:07:45.659Z,2.80
2018-04-20T14:10:13.178Z,2.60
2018-04-20T14:12:40.643Z,2.78
2018-04-20T14:15:09.251Z,2.90
2018-04-20T14:17:36.932Z,2.55
2018-04-20T14:20:04.442Z,3.10
2018-04-20T14:22:31.910Z,3.00
2018-04-20T14:24:59.385Z,2.45
2018-04-20T14:27:26.901Z,3.40
2018-04-20T14:29:54.358Z,2.70
2018-04-20T14:32:21.876Z,2.60
2018-04-20T14:34:49.376Z,2.78
2018-04-20T14:37:16.900Z,2.80
2018-04-20T14:39:44.404Z,3.83
2018-04-20T14:42:11.899Z,2.05
2018-04-20T14:44:39.370Z,2.42
2018-04-20T14:47:09.643Z,2.70
2018-04-20T14:49:37.774Z,3.30
2018-04-20T14:52:06.040Z,2.72
2018-04-20T14:54:33.543Z,2.75
2018-04-20T14:57:01.048Z,2.87
2018-04-20T14:59:28.501Z,2.47
2018-04-20T15:01:56.018Z,2.60
2018-04-20T15:04:23.512Z,2.80
2018-04-20T15:06:50.971Z,3.05
2018-04-20T15:09:18.484Z,3.10
2018-04-20T15:11:45.976Z,2.67
2018-04-20T15:14:13.467Z,3.42
2018-04-20T15:16:41.695Z,3.60
2018-04-20T15:19:09.241Z,2.55
2018-04-20T15:21:36.715Z,2.35
2018-04-20T15:24:04.216Z,2.40
2018-04-20T15:26:32.492Z,2.50
2018-04-20T15:29:00.810Z,2.60
2018-04-20T15:31:28.320Z,2.37
2018-04-20T15:33:55.821Z,2.33
2018-04-20T15:36:23.306Z,2.58
2018-04-20T15:38:50.770Z,2.37
2018-04-20T15:41:18.238Z,9.52
2018-04-20T15:43:45.708Z,2.37
2018-04-20T15:46:13.976Z,2.67
2018-04-20T15:48:41.471Z,2.40
2018-04-20T15:51:08.951Z,2.40
2018-04-20T15:53:36.405Z,2.30
2018-04-20T15:56:03.930Z,3.05
2018-04-20T15:58:32.200Z,2.37
2018-04-20T16:01:01.870Z,2.58
2018-04-20T16:03:29.334Z,2.50
2018-04-20T16:05:56.838Z,3.22
2018-04-20T16:08:24.318Z,2.80
2018-04-20T16:10:51.794Z,2.75
2018-04-20T16:13:19.380Z,3.70
2018-04-20T16:15:47.000Z,2.62
2018-04-20T16:18:14.524Z,3.78
2018-04-20T16:20:42.032Z,3.28
2018-04-20T16:23:09.555Z,3.40
2018-04-20T16:25:37.113Z,3.47
2018-04-20T16:28:04.618Z,5.53
2018-04-20T16:30:32.877Z,3.45
2018-04-20T16:33:00.358Z,3.70
2018-04-20T16:35:27.879Z,3.70
2018-04-20T16:37:55.341Z,3.87
2018-04-20T16:43:26.505Z,3.72
2018-04-20T16:45:54.806Z,5.30
2018-04-20T16:48:22.315Z,4.72
2018-04-20T16:50:49.778Z,4.10
2018-04-20T16:53:18.024Z,4.55
2018-04-20T16:55:45.555Z,4.95
2018-04-20T16:58:13.148Z,5.12
2018-04-20T17:00:40.680Z,4.40
2018-04-20T17:03:08.320Z,3.62
2018-04-20T17:05:36.437Z,4.30
2018-04-20T17:08:03.960Z,6.85
2018-04-20T17:10:31.489Z,12.07
2018-04-20T17:13:00.046Z,12.75
2018-04-20T17:15:27.607Z,17.12
2018-04-20T17:17:55.148Z,8.93
2018-04-20T17:20:22.664Z,7.57
2018-04-20T17:22:52.829Z,3.60
2018-04-20T17:25:20.366Z,5.95
2018-04-20T17:27:47.917Z,12.27
2018-04-20T17:30:15.475Z,7.43
2018-04-20T17:32:42.946Z,4.43
2018-04-20T17:35:10.443Z,7.37
2018-04-20T17:37:37.954Z,11.15
2018-04-20T17:40:05.485Z,3.78
2018-04-20T17:42:33.753Z,6.23
2018-04-20T17:45:02.038Z,4.82
2018-04-20T17:47:29.535Z,3.63
2018-04-20T17:49:57.010Z,4.78
2018-04-20T17:52:24.553Z,4.27
2018-04-20T17:54:52.079Z,3.20
2018-04-20T17:57:19.585Z,3.87
2018-04-20T17:59:47.096Z,3.60
2018-04-20T18:02:14.624Z,3.67
2018-04-20T18:04:42.089Z,3.90
2018-04-20T18:07:10.338Z,4.17
2018-04-20T18:09:37.815Z,3.50
2018-04-20T18:12:06.076Z,3.47
2018-04-20T18:14:33.632Z,3.80
2018-04-20T18:17:01.201Z,4.40
2018-04-20T18:19:28.707Z,3.73
2018-04-20T18:21:56.223Z,3.20
2018-04-20T18:24:24.530Z,3.73
2018-04-20T18:26:52.078Z,3.80
2018-04-20T18:29:20.340Z,3.73
2018-04-20T18:31:48.647Z,3.67
2018-04-20T18:34:16.196Z,3.90
2018-04-20T18:36:43.792Z,4.40
2018-04-20T18:39:11.304Z,4.53
2018-04-20T18:41:39.597Z,3.67
2018-04-20T18:44:07.125Z,3.70
2018-04-20T18:46:35.489Z,3.97
2018-04-20T18:49:03.016Z,5.43
2018-04-20T18:51:30.516Z,4.83
2018-04-20T18:53:58.750Z,4.63
2018-04-20T18:56:26.262Z,4.77
2018-04-20T18:58:54.506Z,5.10
2018-04-20T19:01:22.022Z,7.23
2018-04-20T19:03:49.524Z,5.33
2018-04-20T19:06:17.071Z,5.60
2018-04-20T19:08:44.593Z,5.80
2018-04-20T19:11:12.087Z,5.80
2018-04-20T19:13:39.603Z,5.43
2018-04-20T19:16:07.100Z,5.20
2018-04-20T19:18:34.577Z,5.13
2018-04-20T19:21:02.116Z,6.70
2018-04-20T19:23:29.621Z,6.00
2018-04-20T19:25:57.114Z,6.67
2018-04-20T19:28:25.409Z,6.20
2018-04-20T19:30:52.899Z,18.13
2018-04-20T19:33:21.204Z,7.47
2018-04-20T19:35:48.712Z,9.20
2018-04-20T19:38:16.358Z,7.53
2018-04-20T19:40:43.837Z,6.07
2018-04-20T19:43:11.348Z,5.37
2018-04-20T19:45:38.855Z,5.20
2018-04-20T19:48:06.349Z,5.67
2018-04-20T19:50:33.848Z,6.10
2018-04-20T19:53:01.367Z,5.20
2018-04-20T19:55:28.843Z,6.57
2018-04-20T19:57:56.385Z,6.80
2018-04-20T20:00:23.854Z,6.53
2018-04-20T20:02:51.395Z,7.03
2018-04-20T20:05:18.950Z,6.27
2018-04-20T20:07:46.472Z,6.80
2018-04-20T20:10:13.991Z,6.67
2018-04-20T20:12:41.520Z,5.90
2018-04-20T20:15:09.036Z,6.53
2018-04-20T20:17:36.544Z,5.83
2018-04-20T20:20:04.043Z,6.43
2018-04-20T20:22:31.528Z,6.70
2018-04-20T20:24:59.818Z,6.60
2018-04-20T20:27:28.080Z,6.37
2018-04-20T20:29:56.326Z,5.97
2018-04-20T20:32:23.911Z,7.73
2018-04-20T20:34:52.154Z,5.90
2018-04-20T20:37:19.675Z,6.43
2018-04-20T20:39:47.162Z,5.33
2018-04-20T20:42:14.646Z,6.13
2018-04-20T20:44:42.190Z,6.23
2018-04-20T20:47:09.716Z,6.43
2018-04-20T20:49:37.215Z,5.67
2018-04-20T20:52:04.748Z,6.47
2018-04-20T20:54:32.278Z,5.97
2018-04-20T20:56:59.814Z,6.20
2018-04-20T20:59:28.095Z,5.37
2018-04-20T21:01:56.338Z,5.83
2018-04-20T21:04:23.871Z,5.77
2018-04-20T21:06:51.432Z,5.37
2018-04-20T21:09:18.933Z,5.57
2018-04-20T21:11:46.467Z,5.60
2018-04-20T21:14:13.975Z,5.67
2018-04-20T21:16:41.481Z,6.23
2018-04-20T21:19:09.019Z,6.30
2018-04-20T21:21:36.523Z,5.70
2018-04-20T21:24:04.807Z,5.17
2018-04-20T21:26:33.037Z,6.17
2018-04-20T21:29:00.575Z,5.70
2018-04-20T21:31:28.072Z,5.70
2018-04-20T21:33:59.380Z,5.57
2018-04-20T21:36:23.513Z,5.23
2018-04-20T21:38:51.766Z,5.60
2018-04-20T21:41:19.274Z,5.63
2018-04-20T21:43:46.821Z,5.63
2018-04-20T21:46:15.095Z,5.20
2018-04-20T21:48:42.585Z,4.90
2018-04-20T21:51:10.087Z,5.50
2018-04-20T21:53:37.578Z,5.10
2018-04-20T21:56:05.055Z,5.20
2018-04-20T21:58:32.575Z,5.27
2018-04-20T22:01:00.824Z,4.83
2018-04-20T22:03:28.339Z,5.13
2018-04-20T22:05:55.814Z,4.90
2018-04-20T22:08:23.319Z,4.70
2018-04-20T22:10:51.563Z,5.07
2018-04-20T22:13:19.099Z,4.07
2018-04-20T22:15:46.607Z,4.93
2018-04-20T22:18:14.855Z,4.83
2018-04-20T22:20:42.397Z,4.40
2018-04-20T22:23:09.916Z,4.80
2018-04-20T22:25:38.196Z,4.03
2018-04-20T22:28:06.469Z,3.80
2018-04-20T22:30:33.998Z,3.60
2018-04-20T22:33:01.529Z,4.63
2018-04-20T22:35:28.987Z,4.07
2018-04-20T22:37:56.461Z,4.23
2018-04-20T22:40:23.995Z,3.90
2018-04-20T22:42:51.503Z,4.60
2018-04-20T22:45:19.808Z,4.10
2018-04-20T22:47:47.312Z,4.17
2018-04-20T22:50:14.815Z,4.23
2018-04-20T22:52:42.362Z,4.43
2018-04-20T22:55:10.621Z,4.20
2018-04-20T22:57:38.101Z,4.30
2018-04-20T23:00:05.592Z,4.33
2018-04-20T23:02:33.119Z,4.20
2018-04-20T23:05:00.577Z,4.47
2018-04-20T23:07:28.108Z,4.30
2018-04-20T23:09:55.591Z,4.73
2018-04-20T23:12:23.240Z,4.07
2018-04-20T23:14:51.516Z,4.10
2018-04-20T23:17:19.762Z,4.37
2018-04-20T23:19:47.247Z,4.07
2018-04-20T23:22:15.530Z,4.57
2018-04-20T23:24:43.794Z,4.13
2018-04-20T23:27:11.264Z,3.97
2018-04-20T23:29:39.524Z,4.30
2018-04-20T23:32:07.865Z,4.30
2018-04-20T23:34:35.358Z,3.80
2018-04-20T23:37:03.651Z,4.07
2018-04-20T23:39:31.886Z,4.23
2018-04-20T23:41:59.426Z,4.50
2018-04-20T23:44:26.893Z,4.70
2018-04-20T23:46:54.439Z,4.33
2018-04-20T23:49:21.948Z,4.30
2018-04-20T23:51:50.273Z,4.83
2018-04-20T23:54:17.811Z,4.20
2018-04-20T23:56:45.301Z,4.63
2018-04-20T23:59:12.867Z,4.40
